Information Last Ob Photographs Meteogram Network Table Neighbors Monthly Summaries Observation History Wind Roses Custom Wind Roses Data Calendar Satellite Cloud Product Download Terminal Aerodome Forecast

26 November 2022 Observation History, [EFK] Newport, timezone: America/New_York

Select Date: Time Order:

Show METARs   Show High Frequency MADIS

Previous Day
Time Wind
(mph)
Vis.
(mi.)
Sky Cond.
(100s ft)
Present Wx Temperature (ºF) Relative
Humidity
Pressure Snow
Depth
(in)
Precipitation (in.)
Air Dwpt Feels Like 6 hour altimeter
(in.)
sea level
(mb)
1 hr 3 hr 6 hr
Max.Min.
12:15 AMNW 9G 2110 OVC022
322624 79% 29.830
KEFK 260515Z AUTO 32008G18KT 10SM OVC022 00/M03 A2983 RMK AO2 T00011031
12:35 AMNW 9G 1610 OVC026
322624 76% 29.830
KEFK 260535Z AUTO 32008G14KT 10SM OVC026 00/M04 A2983 RMK AO2 T00011036
12:55 AMNW 14G 2510 OVC030
322423 36 32 71% 29.840
KEFK 260555Z AUTO 31012G22KT 280V350 10SM OVC030 00/M04 A2984 RMK AO2 T00021044 10021 20000
1:15 AMNW 9G 1710 OVC030
322425 72% 29.840
KEFK 260615Z AUTO 31008G15KT 10SM OVC030 00/M04 A2984 RMK AO2 T00021043
1:35 AMWNW 610 OVC030
322427 72% 29.850
KEFK 260635Z AUTO 29005KT 10SM OVC030 00/M04 A2985 RMK AO2 T00021043
1:55 AMW 810 OVC030
322525 73% 29.860
KEFK 260655Z AUTO 28007KT 10SM OVC030 00/M04 A2986 RMK AO2 T00021041
2:15 AMW 710 SCT023
BKN029
OVC034
322526 75% 29.870
KEFK 260715Z AUTO 27006KT 250V340 10SM SCT023 BKN029 OVC034 00/M04 A2987 RMK AO2 T00011038
2:35 AMW 610 SCT023
OVC032
322627 78% 29.870
KEFK 260735Z AUTO 28005KT 10SM SCT023 OVC032 00/M03 A2987 RMK AO2 T00011032
2:55 AMWNW 710 BKN023
OVC032
322626 79% 29.880
KEFK 260755Z AUTO 30006KT 10SM BKN023 OVC032 00/M03 A2988 RMK AO2 T00001032
3:15 AMWNW 810 OVC023
322625 79% 29.880
KEFK 260815Z AUTO 29007KT 10SM OVC023 00/M03 A2988 RMK AO2 T00001032
3:35 AMW 610 OVC023
322626 78% 29.880
KEFK 260835Z AUTO 27005KT 10SM OVC023 00/M03 A2988 RMK AO2 T00001034
3:55 AMW 710 BKN025
OVC029
322626 77% 29.870
KEFK 260855Z AUTO 27006KT 10SM BKN025 OVC029 00/M03 A2987 RMK AO2 T00001035
4:15 AMW 710 OVC028
322526 76% 29.870
KEFK 260915Z AUTO 28006KT 10SM OVC028 00/M04 A2987 RMK AO2 T00001037

The IEM API webservice that provided data to this page. For more details, see documentation.

Data Notes

  • For recent years, this page also optionally shows observations from the MADIS High Frequency METAR dataset. This dataset had a problem with temperatures detailed here.